Time;durP1;ratioP1;P1;durP2;ratioP2;P2;SDS_P1;SDS_P2;PMS_P1;PMS_P2;Temp;Humidity;BMP_temperature;BMP_pressure;BME280_temperature;BME280_humidity;BME280_pressure;Samples;Min_cycle;Max_cycle;Signal;HPM_P1;HPM_P2
2021/12/31 00:00:48;;;;;;;11.43;8.73;;;7.20;99.90;;;;;;5049410;28;20509;-70
2021/12/31 00:03:17;;;;;;;12.97;9.30;;;7.40;99.90;;;;;;5049132;28;20513;-70
2021/12/31 00:05:46;;;;;;;13.77;9.83;;;7.50;99.90;;;;;;5048893;28;20491;-70
2021/12/31 00:08:13;;;;;;;14.27;9.57;;;7.50;99.90;;;;;;5049679;28;20460;-70
2021/12/31 00:10:40;;;;;;;12.37;9.17;;;7.60;99.90;;;;;;5049384;28;20546;-70
2021/12/31 00:13:07;;;;;;;13.33;7.70;;;7.70;99.90;;;;;;5049251;28;20457;-70
2021/12/31 00:15:34;;;;;;;12.63;9.27;;;7.70;99.90;;;;;;5049090;28;20543;-69
2021/12/31 00:18:01;;;;;;;12.23;9.30;;;7.80;99.90;;;;;;5064776;28;20519;-69
2021/12/31 00:20:29;;;;;;;13.77;9.53;;;7.70;99.90;;;;;;5069261;28;20448;-70
2021/12/31 00:23:03;;;;;;;16.50;10.47;;;7.70;99.90;;;;;;5068981;28;20470;-70
2021/12/31 00:25:31;;;;;;;12.77;10.37;;;7.70;99.90;;;;;;5048771;28;20489;-69
2021/12/31 00:27:58;;;;;;;13.97;10.10;;;7.60;99.90;;;;;;5049317;28;20456;-70
2021/12/31 00:30:25;;;;;;;15.57;11.53;;;7.60;99.90;;;;;;5048752;28;20572;-70
2021/12/31 00:32:52;;;;;;;16.93;11.00;;;7.60;99.90;;;;;;5049200;28;20461;-70
2021/12/31 00:35:19;;;;;;;14.90;10.43;;;7.50;99.90;;;;;;5048711;28;21002;-70
2021/12/31 00:37:47;;;;;;;22.23;12.70;;;7.50;99.90;;;;;;5049150;28;20460;-70
2021/12/31 00:40:17;;;;;;;17.40;12.53;;;7.50;99.90;;;;;;5048916;28;20464;-70
2021/12/31 00:42:44;;;;;;;16.70;11.90;;;7.50;99.90;;;;;;5049036;28;20452;-70
2021/12/31 00:45:14;;;;;;;17.13;11.07;;;7.40;99.90;;;;;;5049049;28;21023;-71
2021/12/31 00:47:42;;;;;;;16.40;10.10;;;7.20;99.90;;;;;;5049085;28;20502;-70
2021/12/31 00:50:10;;;;;;;18.53;11.90;;;7.40;99.90;;;;;;5048852;28;20488;-69
2021/12/31 00:52:37;;;;;;;16.53;11.40;;;7.50;99.90;;;;;;5048980;28;20517;-70
2021/12/31 00:55:06;;;;;;;16.63;11.40;;;7.50;99.90;;;;;;5048274;28;20562;-69
2021/12/31 00:57:35;;;;;;;16.63;12.00;;;7.50;99.90;;;;;;5048235;28;20457;-69
2021/12/31 01:00:04;;;;;;;17.60;10.87;;;7.60;99.90;;;;;;5049006;28;20518;-70
2021/12/31 01:02:31;;;;;;;16.80;11.83;;;7.50;99.90;;;;;;5048928;28;20449;-70
2021/12/31 01:04:59;;;;;;;20.50;12.47;;;7.50;99.90;;;;;;5048851;28;20472;-69
2021/12/31 01:07:27;;;;;;;16.13;12.03;;;7.60;99.90;;;;;;5048723;28;20464;-69
2021/12/31 01:09:56;;;;;;;16.40;10.17;;;7.50;99.90;;;;;;5048478;28;20838;-70
2021/12/31 01:12:24;;;;;;;14.80;10.83;;;7.60;99.90;;;;;;5048771;28;20583;-70
2021/12/31 01:14:57;;;;;;;17.07;11.30;;;7.70;99.90;;;;;;5050031;28;20458;-70
2021/12/31 01:17:41;;;;;;;17.90;11.20;;;7.60;99.90;;;;;;5052062;28;20467;-70
2021/12/31 01:20:09;;;;;;;16.73;11.47;;;7.60;99.90;;;;;;5052694;28;20936;-70
2021/12/31 01:22:37;;;;;;;17.50;11.27;;;7.60;99.90;;;;;;5052494;28;20518;-69
2021/12/31 01:25:05;;;;;;;15.80;10.80;;;7.50;99.90;;;;;;5069405;28;20474;-69
2021/12/31 01:27:34;;;;;;;16.40;10.50;;;7.50;99.90;;;;;;5072333;28;20471;-70
2021/12/31 01:30:02;;;;;;;19.67;10.77;;;7.50;99.90;;;;;;5072409;28;20491;-70
2021/12/31 01:32:30;;;;;;;12.90;8.87;;;7.40;99.90;;;;;;5072244;28;20460;-70
2021/12/31 01:34:57;;;;;;;14.87;10.20;;;7.30;99.90;;;;;;5072112;28;20956;-70
2021/12/31 01:37:25;;;;;;;13.43;8.90;;;7.30;99.90;;;;;;5072212;28;21017;-69
2021/12/31 01:39:52;;;;;;;10.80;7.57;;;7.40;99.90;;;;;;5072466;28;20463;-69
2021/12/31 01:42:26;;;;;;;11.40;7.13;;;7.50;99.90;;;;;;5072119;28;20459;-70
2021/12/31 01:44:57;;;;;;;11.57;7.67;;;7.50;99.90;;;;;;5072156;28;20542;-69
2021/12/31 01:47:34;;;;;;;13.00;7.80;;;7.40;99.90;;;;;;5071784;28;20459;-70
2021/12/31 01:50:06;;;;;;;11.30;7.20;;;7.30;99.90;;;;;;5072076;28;20984;-70
2021/12/31 01:52:34;;;;;;;12.33;8.03;;;7.20;99.90;;;;;;5072117;28;20461;-69
2021/12/31 01:55:02;;;;;;;10.07;7.37;;;7.20;99.90;;;;;;5070958;28;20499;-70
2021/12/31 01:57:30;;;;;;;11.03;8.10;;;7.20;99.90;;;;;;5072031;28;20516;-71
2021/12/31 01:59:58;;;;;;;12.40;8.60;;;7.10;99.90;;;;;;5071810;28;20520;-70
2021/12/31 02:02:27;;;;;;;11.03;7.07;;;7.20;99.90;;;;;;5071979;28;20529;-70
2021/12/31 02:04:55;;;;;;;11.73;8.13;;;7.20;99.90;;;;;;5070184;28;20478;-70
2021/12/31 02:07:22;;;;;;;10.97;8.23;;;7.00;99.90;;;;;;5071777;28;20502;-70
2021/12/31 02:09:53;;;;;;;12.27;8.00;;;6.90;99.90;;;;;;5071511;28;20495;-70
2021/12/31 02:12:21;;;;;;;11.83;8.33;;;6.80;99.90;;;;;;5071380;28;20540;-70
2021/12/31 02:14:49;;;;;;;10.80;7.70;;;6.90;99.90;;;;;;5071571;28;21292;-70
2021/12/31 02:17:16;;;;;;;11.10;7.80;;;6.90;99.90;;;;;;5071111;28;20500;-70
2021/12/31 02:19:56;;;;;;;12.30;7.20;;;6.90;99.90;;;;;;5071618;28;20504;-69
2021/12/31 02:22:27;;;;;;;8.77;6.50;;;7.00;99.90;;;;;;5071398;28;20463;-69
2021/12/31 02:24:55;;;;;;;11.97;7.67;;;6.90;99.90;;;;;;5070928;28;20455;-70
2021/12/31 02:27:23;;;;;;;12.13;7.40;;;6.90;99.90;;;;;;5071462;28;20460;-70
2021/12/31 02:29:50;;;;;;;12.40;7.57;;;6.90;99.90;;;;;;5071659;28;21034;-70
2021/12/31 02:32:17;;;;;;;9.83;6.60;;;7.00;99.90;;;;;;5070993;28;20452;-70
2021/12/31 02:34:45;;;;;;;11.07;6.93;;;6.90;99.90;;;;;;5071746;28;20457;-70
2021/12/31 02:37:13;;;;;;;11.30;7.90;;;6.90;99.90;;;;;;5071086;28;20466;-70
2021/12/31 02:39:43;;;;;;;10.80;8.20;;;6.90;99.90;;;;;;5070897;28;20454;-70
2021/12/31 02:42:10;;;;;;;11.93;8.23;;;6.80;99.90;;;;;;5071058;28;20451;-70
2021/12/31 02:44:38;;;;;;;12.53;8.17;;;6.90;99.90;;;;;;5071089;28;20452;-70
2021/12/31 02:47:06;;;;;;;10.57;7.13;;;7.00;99.90;;;;;;5070927;28;20476;-70
2021/12/31 02:49:38;;;;;;;12.77;7.50;;;6.90;99.90;;;;;;5070961;28;20565;-70
2021/12/31 02:52:08;;;;;;;14.93;8.47;;;6.90;99.90;;;;;;5070858;28;20447;-70
2021/12/31 02:54:41;;;;;;;10.90;6.47;;;6.80;99.90;;;;;;5070519;28;20480;-70
2021/12/31 02:57:08;;;;;;;10.83;7.27;;;6.80;99.90;;;;;;5070928;28;20462;-70
2021/12/31 02:59:36;;;;;;;11.43;7.17;;;6.80;99.90;;;;;;5070805;28;20443;-69
2021/12/31 03:02:06;;;;;;;10.87;7.37;;;6.70;99.90;;;;;;5070791;28;20454;-70
2021/12/31 03:04:35;;;;;;;10.50;6.77;;;6.70;99.90;;;;;;5070610;28;20796;-70
2021/12/31 03:07:04;;;;;;;12.30;8.20;;;6.60;99.90;;;;;;5070212;28;20450;-72
2021/12/31 03:09:32;;;;;;;9.80;6.73;;;6.70;99.90;;;;;;5070745;28;20940;-70
2021/12/31 03:12:02;;;;;;;10.20;7.17;;;6.70;99.90;;;;;;5070658;28;20494;-70
2021/12/31 03:14:32;;;;;;;11.50;8.13;;;6.70;99.90;;;;;;5070282;28;20512;-69
2021/12/31 03:17:02;;;;;;;10.07;7.00;;;6.80;99.90;;;;;;5070433;28;20813;-69
2021/12/31 03:19:29;;;;;;;10.70;6.97;;;6.80;99.90;;;;;;5070525;28;20501;-69
2021/12/31 03:21:56;;;;;;;12.30;8.50;;;6.80;99.90;;;;;;5070489;28;20459;-69
2021/12/31 03:24:23;;;;;;;10.87;7.07;;;6.80;99.90;;;;;;5069987;28;20465;-68
2021/12/31 03:26:50;;;;;;;8.60;6.27;;;6.90;99.90;;;;;;5070435;28;20467;-70
2021/12/31 03:29:19;;;;;;;12.57;6.93;;;6.80;99.90;;;;;;5070078;28;20490;-69
2021/12/31 03:31:46;;;;;;;10.00;6.53;;;6.80;99.90;;;;;;5069841;28;20489;-69
2021/12/31 03:34:14;;;;;;;12.27;7.73;;;6.70;99.90;;;;;;5070066;28;20971;-69
2021/12/31 03:36:41;;;;;;;11.20;7.20;;;6.80;99.90;;;;;;5069959;28;20483;-68
2021/12/31 03:39:09;;;;;;;8.70;5.67;;;6.80;99.90;;;;;;5069954;28;20537;-70
2021/12/31 03:41:36;;;;;;;9.53;5.80;;;6.70;99.90;;;;;;5069967;28;20450;-69
2021/12/31 03:44:03;;;;;;;11.30;6.50;;;6.60;99.90;;;;;;5069720;28;20809;-69
2021/12/31 03:46:32;;;;;;;7.83;5.60;;;6.60;99.90;;;;;;5069932;28;20688;-69
2021/12/31 03:48:59;;;;;;;10.87;6.43;;;6.50;99.90;;;;;;5070022;28;20476;-69
2021/12/31 03:51:26;;;;;;;7.50;5.27;;;6.40;99.90;;;;;;5069908;28;20494;-69
2021/12/31 03:53:53;;;;;;;9.10;5.37;;;6.40;99.90;;;;;;5069534;28;20490;-69
2021/12/31 03:56:22;;;;;;;9.27;6.20;;;6.40;99.90;;;;;;5069793;28;20503;-69
2021/12/31 03:58:49;;;;;;;8.73;5.93;;;6.40;99.90;;;;;;5069586;28;20970;-69
2021/12/31 04:01:16;;;;;;;10.60;6.40;;;6.30;99.90;;;;;;5069883;28;20450;-69
2021/12/31 04:03:45;;;;;;;9.10;6.20;;;6.40;99.90;;;;;;5069796;28;20450;-69
2021/12/31 04:06:12;;;;;;;10.43;6.27;;;6.50;99.90;;;;;;5069543;28;20620;-69
2021/12/31 04:08:39;;;;;;;11.23;7.70;;;6.50;99.90;;;;;;5069595;28;20454;-69
2021/12/31 04:11:06;;;;;;;11.50;6.90;;;6.50;99.90;;;;;;5069250;28;20900;-69
2021/12/31 04:13:33;;;;;;;10.40;7.27;;;6.60;99.90;;;;;;5069536;28;20454;-69
2021/12/31 04:16:00;;;;;;;8.73;6.07;;;6.60;99.90;;;;;;5069345;28;20535;-69
2021/12/31 04:18:27;;;;;;;8.23;6.10;;;6.60;99.90;;;;;;5069110;28;20870;-69
2021/12/31 04:20:57;;;;;;;9.93;6.00;;;6.60;99.90;;;;;;5069671;28;20446;-69
2021/12/31 04:23:29;;;;;;;8.77;5.97;;;6.60;99.90;;;;;;5069131;28;20458;-69
2021/12/31 04:25:57;;;;;;;9.40;5.27;;;6.20;99.90;;;;;;5069331;28;20477;-69
2021/12/31 04:28:24;;;;;;;10.00;6.40;;;6.20;99.90;;;;;;5069426;28;20981;-69
2021/12/31 04:30:51;;;;;;;9.33;6.30;;;6.20;99.90;;;;;;5069399;28;20506;-68
2021/12/31 04:33:18;;;;;;;11.07;7.23;;;6.20;99.90;;;;;;5069380;28;20463;-70
2021/12/31 04:35:46;;;;;;;11.83;7.80;;;6.30;99.90;;;;;;5069148;28;20569;-70
2021/12/31 04:38:14;;;;;;;10.77;6.20;;;6.40;99.90;;;;;;5069454;28;20529;-69
2021/12/31 04:40:41;;;;;;;9.13;5.60;;;6.30;99.90;;;;;;5069326;28;20449;-69
2021/12/31 04:43:08;;;;;;;9.40;6.30;;;6.40;99.90;;;;;;5069434;28;20564;-69
2021/12/31 04:45:35;;;;;;;9.63;6.00;;;6.50;99.90;;;;;;5069170;28;20536;-69
2021/12/31 04:48:03;;;;;;;9.70;6.43;;;6.60;99.90;;;;;;5069351;28;20840;-69
2021/12/31 04:50:30;;;;;;;10.20;7.07;;;6.60;99.90;;;;;;5071771;28;20461;-71
2021/12/31 04:52:58;;;;;;;9.93;6.30;;;6.70;99.90;;;;;;5073257;28;20451;-69
2021/12/31 04:55:26;;;;;;;10.80;7.30;;;6.60;99.90;;;;;;5072639;28;21092;-70
2021/12/31 04:57:53;;;;;;;8.87;6.50;;;6.60;99.90;;;;;;5073442;28;20459;-71
2021/12/31 05:00:20;;;;;;;8.27;5.57;;;6.70;99.90;;;;;;5073168;28;20531;-70
2021/12/31 05:02:47;;;;;;;10.10;6.87;;;6.60;99.90;;;;;;5073176;28;20476;-69
2021/12/31 05:05:15;;;;;;;8.53;6.10;;;6.70;99.90;;;;;;5072803;28;20486;-69
2021/12/31 05:07:42;;;;;;;10.10;6.77;;;6.70;99.90;;;;;;5072981;28;20449;-69
2021/12/31 05:10:10;;;;;;;10.40;6.90;;;6.70;99.90;;;;;;5073100;28;20529;-70
2021/12/31 05:12:38;;;;;;;8.97;6.77;;;6.70;99.90;;;;;;5073099;28;20599;-70
2021/12/31 05:15:09;;;;;;;11.10;6.90;;;6.60;99.90;;;;;;5072586;28;20490;-69
2021/12/31 05:17:37;;;;;;;10.00;6.73;;;6.60;99.90;;;;;;5072854;28;20459;-70
2021/12/31 05:20:06;;;;;;;8.43;5.70;;;6.60;99.90;;;;;;5072989;28;20450;-69
2021/12/31 05:22:34;;;;;;;9.20;5.30;;;6.30;99.90;;;;;;5072727;28;20456;-70
2021/12/31 05:25:01;;;;;;;8.40;5.17;;;6.30;99.90;;;;;;5072631;28;20473;-69
2021/12/31 05:27:28;;;;;;;10.37;5.90;;;6.30;99.90;;;;;;5072800;28;20557;-69
2021/12/31 05:29:57;;;;;;;8.73;6.23;;;6.40;99.90;;;;;;5072328;28;20930;-71
2021/12/31 05:32:24;;;;;;;9.00;5.70;;;6.30;99.90;;;;;;5072403;28;20480;-70
2021/12/31 05:34:51;;;;;;;11.63;6.90;;;6.30;99.90;;;;;;5072081;28;20446;-68
2021/12/31 05:37:18;;;;;;;8.90;5.97;;;6.40;99.90;;;;;;5072465;28;20447;-69
2021/12/31 05:39:45;;;;;;;8.10;4.77;;;6.50;99.90;;;;;;5072832;28;20459;-70
2021/12/31 05:42:12;;;;;;;9.93;5.60;;;6.50;99.90;;;;;;5072570;28;20538;-71
2021/12/31 05:44:40;;;;;;;8.23;5.83;;;6.60;99.90;;;;;;5072224;28;20455;-69
2021/12/31 05:47:09;;;;;;;9.77;5.80;;;6.70;99.90;;;;;;5072308;28;20839;-70
2021/12/31 05:49:37;;;;;;;10.87;6.93;;;6.70;99.90;;;;;;5072351;28;20481;-70
2021/12/31 05:52:04;;;;;;;9.10;5.30;;;6.70;99.90;;;;;;5072127;28;20494;-69
2021/12/31 05:54:31;;;;;;;8.97;5.67;;;6.80;99.90;;;;;;5071658;28;20493;-70
2021/12/31 05:56:59;;;;;;;8.87;6.07;;;6.70;99.90;;;;;;5071774;28;21014;-70
2021/12/31 05:59:26;;;;;;;8.73;5.60;;;6.70;99.90;;;;;;5072131;28;20458;-70
2021/12/31 06:01:53;;;;;;;10.30;6.57;;;6.70;99.90;;;;;;5070038;28;20990;-68
2021/12/31 06:04:22;;;;;;;9.47;6.30;;;6.70;99.90;;;;;;5072193;28;20510;-71
2021/12/31 06:06:50;;;;;;;11.27;6.30;;;6.60;99.90;;;;;;5071544;28;20511;-69
2021/12/31 06:09:17;;;;;;;10.10;6.20;;;6.60;99.90;;;;;;5072065;28;20517;-69
2021/12/31 06:11:44;;;;;;;13.23;7.00;;;6.60;99.90;;;;;;5071560;28;21068;-69
2021/12/31 06:14:13;;;;;;;12.33;6.10;;;6.70;99.90;;;;;;5071525;28;20951;-69
2021/12/31 06:16:42;;;;;;;9.83;6.50;;;6.80;99.90;;;;;;5071652;28;20524;-69
2021/12/31 06:19:11;;;;;;;8.90;5.87;;;6.90;99.90;;;;;;5071753;28;20963;-69
2021/12/31 06:21:41;;;;;;;9.77;5.97;;;7.00;99.90;;;;;;5071458;28;20950;-70
2021/12/31 06:24:09;;;;;;;10.20;7.10;;;7.00;99.90;;;;;;5071205;28;20452;-69
2021/12/31 06:26:37;;;;;;;10.00;7.37;;;7.20;99.90;;;;;;5071235;28;20468;-69
2021/12/31 06:29:04;;;;;;;13.03;7.47;;;7.20;99.90;;;;;;5071547;28;20452;-71
2021/12/31 06:31:31;;;;;;;10.43;6.70;;;7.20;99.90;;;;;;5071263;28;20495;-70
2021/12/31 06:33:58;;;;;;;10.63;6.20;;;7.30;99.90;;;;;;5071426;28;20482;-70
2021/12/31 06:36:26;;;;;;;9.60;7.10;;;7.20;99.90;;;;;;5071215;28;20532;-70
2021/12/31 06:38:54;;;;;;;10.13;6.33;;;7.40;99.90;;;;;;5071245;28;20456;-69
2021/12/31 06:41:21;;;;;;;11.83;6.37;;;7.50;99.90;;;;;;5071348;28;20447;-69
2021/12/31 06:43:49;;;;;;;11.23;6.67;;;7.50;99.90;;;;;;5071362;28;20451;-69
2021/12/31 06:46:16;;;;;;;12.10;7.00;;;7.60;99.90;;;;;;5071126;28;20476;-69
2021/12/31 06:48:44;;;;;;;10.13;7.27;;;7.60;99.90;;;;;;5071252;28;20460;-69
2021/12/31 06:51:11;;;;;;;8.77;6.50;;;7.70;99.90;;;;;;5070850;28;20514;-69
2021/12/31 06:53:38;;;;;;;9.80;6.57;;;7.60;99.90;;;;;;5070461;28;21000;-69
2021/12/31 06:56:07;;;;;;;12.30;7.70;;;7.70;99.90;;;;;;5070603;28;20476;-68
2021/12/31 06:58:34;;;;;;;11.67;7.83;;;7.60;99.90;;;;;;5070657;28;20451;-69
2021/12/31 07:01:01;;;;;;;10.63;7.07;;;7.60;99.90;;;;;;5070966;28;20479;-69
2021/12/31 07:03:28;;;;;;;9.87;7.47;;;7.80;99.90;;;;;;5070951;28;20463;-70
2021/12/31 07:05:55;;;;;;;9.83;6.97;;;7.90;99.90;;;;;;5070359;28;20575;-70
2021/12/31 07:08:22;;;;;;;9.73;6.60;;;8.10;99.90;;;;;;5069155;28;20452;-69
2021/12/31 07:10:49;;;;;;;11.33;7.50;;;8.10;99.90;;;;;;5070695;28;20786;-69
2021/12/31 07:13:18;;;;;;;10.80;6.70;;;8.30;99.90;;;;;;5069579;28;21000;-73
2021/12/31 07:15:48;;;;;;;10.50;7.17;;;8.30;99.90;;;;;;5070494;28;20506;-69
2021/12/31 07:18:16;;;;;;;10.07;6.53;;;8.20;99.90;;;;;;5070678;28;20449;-69
2021/12/31 07:20:43;;;;;;;11.53;7.40;;;8.00;99.90;;;;;;5070188;28;20456;-70
2021/12/31 07:23:12;;;;;;;11.47;7.57;;;8.10;99.90;;;;;;5070258;28;20479;-68
2021/12/31 07:25:40;;;;;;;10.87;7.03;;;8.30;99.90;;;;;;5070335;28;20473;-69
2021/12/31 07:28:08;;;;;;;11.13;6.37;;;8.50;99.90;;;;;;5068883;28;20453;-74
2021/12/31 07:30:37;;;;;;;9.47;5.90;;;8.70;99.90;;;;;;5070392;28;20465;-72
2021/12/31 07:33:05;;;;;;;9.50;6.70;;;8.90;99.90;;;;;;5070349;28;20545;-74
2021/12/31 07:35:32;;;;;;;10.87;6.73;;;9.00;99.90;;;;;;5070190;28;20477;-76
2021/12/31 07:38:00;;;;;;;11.27;7.50;;;9.00;99.90;;;;;;5070152;28;20933;-74
2021/12/31 07:40:38;;;;;;;12.17;8.17;;;9.20;99.90;;;;;;5070162;28;20453;-75
2021/12/31 07:43:05;;;;;;;10.93;7.17;;;9.30;99.90;;;;;;5070042;28;20444;-77
2021/12/31 07:45:32;;;;;;;11.27;8.20;;;9.50;99.90;;;;;;5069998;28;20774;-68
2021/12/31 07:48:01;;;;;;;13.47;8.80;;;9.60;99.90;;;;;;5070067;28;20457;-75
2021/12/31 07:50:28;;;;;;;10.13;7.20;;;9.50;99.90;;;;;;5069956;28;20544;-75
2021/12/31 07:52:55;;;;;;;11.13;7.73;;;9.60;99.90;;;;;;5069916;28;20495;-75
2021/12/31 07:55:23;;;;;;;13.00;8.97;;;9.70;99.90;;;;;;5074470;28;20489;-71
2021/12/31 07:57:50;;;;;;;12.07;8.90;;;9.70;99.90;;;;;;5078995;28;20890;-78
2021/12/31 08:00:17;;;;;;;13.83;9.93;;;9.70;99.90;;;;;;5081909;28;21006;-76
2021/12/31 08:02:46;;;;;;;13.97;8.80;;;9.60;99.90;;;;;;5078593;28;20452;-76
2021/12/31 08:05:14;;;;;;;13.70;8.60;;;9.80;99.90;;;;;;5071125;28;20927;-77
2021/12/31 08:07:41;;;;;;;11.50;8.50;;;9.80;99.90;;;;;;5070460;28;20836;-73
2021/12/31 08:10:10;;;;;;;13.93;10.20;;;9.80;99.90;;;;;;5069136;28;20461;-74
2021/12/31 08:12:37;;;;;;;13.80;8.73;;;9.80;99.90;;;;;;5069510;28;20973;-77
2021/12/31 08:15:06;;;;;;;11.80;8.37;;;9.90;99.90;;;;;;5069388;28;20477;-72
2021/12/31 08:17:33;;;;;;;14.07;8.93;;;9.90;99.90;;;;;;5069655;28;20810;-72
2021/12/31 08:20:00;;;;;;;13.23;7.33;;;9.90;99.90;;;;;;5069121;28;20606;-73
2021/12/31 08:22:29;;;;;;;12.00;7.90;;;9.80;99.90;;;;;;5069519;28;20449;-69
2021/12/31 08:24:57;;;;;;;12.07;7.70;;;10.00;99.90;;;;;;5069163;28;20810;-69
2021/12/31 08:27:24;;;;;;;13.07;8.00;;;10.00;99.90;;;;;;5069346;28;20506;-70
2021/12/31 08:29:51;;;;;;;10.27;6.87;;;10.10;99.90;;;;;;5069445;28;20460;-68
2021/12/31 08:32:18;;;;;;;13.20;7.87;;;10.10;99.90;;;;;;5069372;28;20538;-70
2021/12/31 08:34:45;;;;;;;12.27;7.20;;;10.10;99.90;;;;;;5069200;28;20869;-71
2021/12/31 08:37:12;;;;;;;12.90;8.00;;;10.20;99.90;;;;;;5069371;28;20453;-72
2021/12/31 08:39:41;;;;;;;10.23;7.10;;;10.30;99.90;;;;;;5069208;28;20514;-71
2021/12/31 08:42:08;;;;;;;11.30;7.53;;;10.30;99.90;;;;;;5069317;28;21183;-71
2021/12/31 08:44:35;;;;;;;12.60;7.93;;;10.40;99.90;;;;;;5069181;28;20490;-71
2021/12/31 08:47:02;;;;;;;11.97;8.30;;;10.40;99.90;;;;;;5069105;28;20469;-70
2021/12/31 08:49:29;;;;;;;21.53;8.40;;;10.60;99.90;;;;;;5069030;28;20509;-69
2021/12/31 08:51:56;;;;;;;11.30;7.63;;;10.90;99.90;;;;;;5068611;28;20489;-69
2021/12/31 08:54:23;;;;;;;10.70;7.53;;;11.30;99.90;;;;;;5068729;28;20546;-69
2021/12/31 08:56:52;;;;;;;12.20;8.60;;;11.40;99.90;;;;;;5069011;28;20465;-70
2021/12/31 08:59:19;;;;;;;12.30;8.13;;;11.70;99.90;;;;;;5069153;28;20506;-69
2021/12/31 09:01:47;;;;;;;11.00;7.77;;;11.80;99.90;;;;;;5067692;28;20452;-69
2021/12/31 09:04:14;;;;;;;13.40;9.17;;;11.90;99.90;;;;;;5068854;28;20507;-70
2021/12/31 09:06:41;;;;;;;13.13;8.93;;;12.20;99.90;;;;;;5068972;28;20477;-70
2021/12/31 09:09:08;;;;;;;11.00;8.20;;;12.10;99.90;;;;;;5068657;28;20950;-69
2021/12/31 09:11:35;;;;;;;12.03;8.40;;;12.30;99.90;;;;;;5068857;28;20925;-70
2021/12/31 09:14:04;;;;;;;11.57;8.40;;;12.60;99.90;;;;;;5069003;28;20511;-70
2021/12/31 09:16:31;;;;;;;12.73;8.97;;;12.90;99.90;;;;;;5068812;28;21023;-70
2021/12/31 09:18:58;;;;;;;14.50;8.87;;;12.90;99.90;;;;;;5068885;28;20499;-70
2021/12/31 09:21:25;;;;;;;11.63;8.60;;;13.20;99.90;;;;;;5068793;28;20502;-70
2021/12/31 09:23:52;;;;;;;11.57;7.40;;;13.40;99.90;;;;;;5068722;28;20449;-69
2021/12/31 09:26:19;;;;;;;11.53;7.10;;;13.40;99.90;;;;;;5068577;28;20469;-69
2021/12/31 09:28:46;;;;;;;9.33;7.37;;;13.40;99.90;;;;;;5068466;28;20449;-70
2021/12/31 09:31:14;;;;;;;11.93;8.50;;;13.50;99.90;;;;;;5068702;28;20526;-70
2021/12/31 09:33:42;;;;;;;10.40;7.37;;;13.60;99.90;;;;;;5068630;28;20496;-69
2021/12/31 09:36:09;;;;;;;9.23;6.80;;;13.90;99.90;;;;;;5070107;28;20839;-71
2021/12/31 09:38:36;;;;;;;11.17;8.33;;;14.20;99.90;;;;;;5072318;28;20530;-69
2021/12/31 09:41:03;;;;;;;11.37;7.83;;;14.20;99.90;;;;;;5072337;28;20464;-71
2021/12/31 09:43:30;;;;;;;13.27;8.73;;;14.00;99.90;;;;;;5072575;28;20444;-71
2021/12/31 09:45:57;;;;;;;11.10;8.57;;;14.00;99.90;;;;;;5072268;28;20469;-70
2021/12/31 09:48:26;;;;;;;13.40;8.30;;;14.00;99.90;;;;;;5071832;28;20449;-71
2021/12/31 09:50:55;;;;;;;11.60;8.43;;;13.80;99.90;;;;;;5072185;28;20456;-69
2021/12/31 09:53:23;;;;;;;13.20;8.90;;;13.60;99.90;;;;;;5071722;28;20488;-70
2021/12/31 09:55:53;;;;;;;11.73;8.13;;;13.50;99.90;;;;;;5071588;28;20481;-69
2021/12/31 09:58:23;;;;;;;15.00;9.60;;;13.60;99.90;;;;;;5072259;28;20468;-70
2021/12/31 10:00:53;;;;;;;13.23;8.30;;;13.90;99.90;;;;;;5072104;28;20464;-69
2021/12/31 10:03:25;;;;;;;15.70;9.37;;;14.20;99.90;;;;;;5071679;28;20463;-69
2021/12/31 10:05:55;;;;;;;12.13;8.53;;;14.20;99.90;;;;;;5071242;28;20794;-70
2021/12/31 10:08:23;;;;;;;13.20;8.90;;;14.40;99.90;;;;;;5071441;28;20942;-69
2021/12/31 10:11:04;;;;;;;13.20;10.00;;;14.80;99.90;;;;;;5071684;28;20460;-69
2021/12/31 10:13:32;;;;;;;11.63;8.53;;;15.00;99.90;;;;;;5071609;28;20901;-71
2021/12/31 10:16:00;;;;;;;14.40;8.97;;;15.00;99.90;;;;;;5071392;28;20480;-70
2021/12/31 10:18:31;;;;;;;14.23;9.30;;;14.90;99.90;;;;;;5071398;28;20456;-70
2021/12/31 10:21:00;;;;;;;12.07;8.23;;;14.80;99.90;;;;;;5071835;28;20445;-70
2021/12/31 10:23:27;;;;;;;13.13;8.73;;;14.50;99.90;;;;;;5071574;28;20495;-69
2021/12/31 10:26:08;;;;;;;13.73;8.80;;;14.40;99.90;;;;;;5071336;28;20865;-69
2021/12/31 10:28:36;;;;;;;12.70;9.03;;;14.40;99.90;;;;;;5071644;28;20549;-70
2021/12/31 10:31:16;;;;;;;12.90;8.50;;;14.10;99.90;;;;;;5071247;28;20453;-71
2021/12/31 10:33:45;;;;;;;11.43;8.23;;;14.30;99.90;;;;;;5071185;28;20488;-69
2021/12/31 10:36:35;;;;;;;12.60;8.10;;;14.50;99.90;;;;;;5071227;28;20534;-69
2021/12/31 10:39:17;;;;;;;11.50;8.00;;;14.70;99.90;;;;;;5070740;28;20495;-69
2021/12/31 10:41:46;;;;;;;10.60;8.20;;;14.70;99.90;;;;;;5071347;28;20447;-70
2021/12/31 10:44:13;;;;;;;9.90;6.93;;;14.90;99.90;;;;;;5071704;28;20761;-69
2021/12/31 10:46:41;;;;;;;13.27;7.07;;;15.00;99.90;;;;;;5070343;28;20502;-69
2021/12/31 10:49:11;;;;;;;11.63;7.40;;;15.40;99.90;;;;;;5070827;28;20463;-69
2021/12/31 10:51:41;;;;;;;10.30;7.03;;;15.60;99.90;;;;;;5071313;28;20484;-69
2021/12/31 10:54:31;;;;;;;10.37;7.17;;;15.50;99.90;;;;;;5070297;28;21104;-69
2021/12/31 10:57:00;;;;;;;11.40;6.70;;;15.60;99.90;;;;;;5070935;28;20977;-69
2021/12/31 10:59:33;;;;;;;9.03;6.60;;;15.60;99.90;;;;;;5070775;28;21003;-69
2021/12/31 11:02:01;;;;;;;9.43;6.70;;;15.60;99.90;;;;;;5070815;28;20460;-69
2021/12/31 11:04:29;;;;;;;8.37;5.90;;;15.60;99.90;;;;;;5070822;28;21163;-69
2021/12/31 11:06:59;;;;;;;11.10;6.67;;;15.60;99.90;;;;;;5070357;28;20483;-70
2021/12/31 11:09:27;;;;;;;13.07;6.00;;;15.50;99.90;;;;;;5070577;28;20464;-70
2021/12/31 11:11:54;;;;;;;11.93;7.70;;;15.30;99.90;;;;;;5069509;28;20541;-69
2021/12/31 11:14:21;;;;;;;11.50;6.20;;;15.20;99.90;;;;;;5070678;28;20562;-69
2021/12/31 11:16:48;;;;;;;12.47;6.23;;;14.90;99.90;;;;;;5069927;28;20472;-68
2021/12/31 11:19:17;;;;;;;9.60;7.13;;;14.80;99.90;;;;;;5070780;28;20950;-69
2021/12/31 11:21:49;;;;;;;9.67;6.40;;;14.60;99.90;;;;;;5070832;28;20449;-69
2021/12/31 11:24:31;;;;;;;9.27;6.40;;;14.50;99.90;;;;;;5070453;28;20958;-69
2021/12/31 11:26:59;;;;;;;9.27;5.90;;;14.40;99.90;;;;;;5070113;28;20483;-68
2021/12/31 11:29:37;;;;;;;8.70;6.60;;;14.20;99.90;;;;;;5070302;28;20480;-68
2021/12/31 11:32:06;;;;;;;12.80;7.80;;;14.10;99.90;;;;;;5070284;28;20462;-69
2021/12/31 11:34:35;;;;;;;11.67;6.73;;;13.90;99.90;;;;;;5070299;28;20484;-69
2021/12/31 11:37:02;;;;;;;10.60;7.10;;;13.80;99.90;;;;;;5070137;28;20562;-69
2021/12/31 11:39:35;;;;;;;11.40;7.53;;;13.70;99.90;;;;;;5069872;28;20449;-69
2021/12/31 11:42:05;;;;;;;11.60;6.63;;;13.70;99.90;;;;;;5069806;28;20495;-69
2021/12/31 11:44:33;;;;;;;14.60;6.43;;;13.40;99.90;;;;;;5070213;28;20833;-69
2021/12/31 11:47:13;;;;;;;9.00;6.70;;;13.50;99.90;;;;;;5069926;28;20526;-69
2021/12/31 11:49:41;;;;;;;9.30;7.03;;;13.20;99.90;;;;;;5070142;28;20488;-69
2021/12/31 11:52:10;;;;;;;11.50;6.07;;;13.10;99.90;;;;;;5069865;28;20449;-70
2021/12/31 11:54:40;;;;;;;11.43;6.27;;;13.10;99.90;;;;;;5069379;28;20595;-69
2021/12/31 11:57:19;;;;;;;7.57;5.67;;;12.80;99.90;;;;;;5069513;28;20473;-68
2021/12/31 11:59:52;;;;;;;9.23;6.50;;;12.80;99.90;;;;;;5069345;28;20536;-68
2021/12/31 12:02:33;;;;;;;9.03;6.00;;;12.80;99.90;;;;;;5069558;28;20453;-68
2021/12/31 12:05:14;;;;;;;9.87;5.80;;;12.60;99.90;;;;;;5069854;28;20860;-67
2021/12/31 12:07:49;;;;;;;9.70;5.70;;;12.50;99.90;;;;;;5069805;28;20501;-68
2021/12/31 12:10:38;;;;;;;11.50;5.43;;;12.40;99.90;;;;;;5069420;28;20452;-68
2021/12/31 12:13:26;;;;;;;7.20;4.20;;;12.40;99.90;;;;;;5069613;28;20595;-68
2021/12/31 12:15:54;;;;;;;9.13;4.70;;;12.80;99.90;;;;;;5069353;28;20476;-68
2021/12/31 12:18:53;;;;;;;7.83;4.93;;;12.50;99.90;;;;;;5069580;28;20457;-69
2021/12/31 12:21:34;;;;;;;7.50;4.20;;;12.40;99.90;;;;;;5069489;28;20938;-68
2021/12/31 12:24:01;;;;;;;7.53;3.53;;;12.50;99.90;;;;;;5067875;28;20888;-69
2021/12/31 12:26:31;;;;;;;9.73;4.70;;;12.50;99.90;;;;;;5069359;28;20565;-68
2021/12/31 12:28:58;;;;;;;8.30;4.43;;;12.50;99.90;;;;;;5069621;28;20448;-68
2021/12/31 12:31:25;;;;;;;6.40;3.33;;;12.60;99.90;;;;;;5069149;28;21032;-69
2021/12/31 12:33:58;;;;;;;7.00;4.50;;;12.60;99.90;;;;;;5069326;28;20492;-68
2021/12/31 12:36:26;;;;;;;6.00;3.67;;;12.60;99.90;;;;;;5069301;28;20557;-68
2021/12/31 12:39:03;;;;;;;7.23;4.10;;;12.50;99.90;;;;;;5069321;28;20449;-68
2021/12/31 12:41:32;;;;;;;6.33;3.73;;;12.40;99.90;;;;;;5069332;28;20449;-68
2021/12/31 12:43:59;;;;;;;9.40;4.10;;;12.30;99.90;;;;;;5069600;28;20452;-69
2021/12/31 12:46:27;;;;;;;8.00;3.97;;;12.20;99.90;;;;;;5069202;28;20469;-68
2021/12/31 12:48:57;;;;;;;7.43;4.50;;;12.20;99.90;;;;;;5069223;28;21040;-69
2021/12/31 12:51:29;;;;;;;7.23;4.30;;;12.20;99.90;;;;;;5069085;28;20937;-69
2021/12/31 12:53:57;;;;;;;7.17;3.60;;;12.30;99.90;;;;;;5068698;28;20527;-69